Time;durP1;ratioP1;P1;durP2;ratioP2;P2;SDS_P1;SDS_P2;PMS_P1;PMS_P2;Temp;Humidity;BMP_temperature;BMP_pressure;BME280_temperature;BME280_humidity;BME280_pressure;Samples;Min_cycle;Max_cycle;Signal;HPM_P1;HPM_P2
2021/10/05 00:01:02;;;;;;;6.72;3.95;;;;;;;;;;10322134;28;20071;-53
2021/10/05 00:06:00;;;;;;;5.85;3.80;;;;;;;;;;10321679;28;20074;-54
2021/10/05 00:10:59;;;;;;;8.43;3.85;;;;;;;;;;10321758;28;20045;-53
2021/10/05 00:15:57;;;;;;;5.13;3.97;;;;;;;;;;10320200;28;20044;-55
2021/10/05 00:20:57;;;;;;;8.98;4.55;;;;;;;;;;10321589;28;20083;-55
2021/10/05 00:25:55;;;;;;;7.13;3.53;;;;;;;;;;10321276;28;20087;-52
2021/10/05 00:30:53;;;;;;;7.97;3.53;;;;;;;;;;10320828;28;20119;-55
2021/10/05 00:35:52;;;;;;;6.43;3.83;;;;;;;;;;10321056;28;20076;-52
2021/10/05 00:40:52;;;;;;;5.05;3.08;;;;;;;;;;10320481;28;20072;-55
2021/10/05 00:45:50;;;;;;;8.95;3.65;;;;;;;;;;10320293;28;20485;-49
2021/10/05 00:50:48;;;;;;;8.80;4.18;;;;;;;;;;10320466;28;20055;-55
2021/10/05 00:55:47;;;;;;;3.67;3.25;;;;;;;;;;10320068;28;20060;-56
2021/10/05 01:00:47;;;;;;;8.68;4.53;;;;;;;;;;10319435;28;20072;-54
2021/10/05 01:05:45;;;;;;;9.68;4.85;;;;;;;;;;10319557;28;20494;-52
2021/10/05 01:10:43;;;;;;;11.82;4.60;;;;;;;;;;10319646;28;20536;-54
2021/10/05 01:15:42;;;;;;;6.05;4.40;;;;;;;;;;10319315;28;20056;-53
2021/10/05 01:20:53;;;;;;;10.52;6.93;;;;;;;;;;10318934;28;20076;-56
2021/10/05 01:25:51;;;;;;;12.82;5.88;;;;;;;;;;10318407;28;20044;-54
2021/10/05 01:30:49;;;;;;;9.02;5.40;;;;;;;;;;10318304;28;20422;-53
2021/10/05 01:35:48;;;;;;;5.40;4.90;;;;;;;;;;10318657;28;20044;-55
2021/10/05 01:40:48;;;;;;;9.88;4.93;;;;;;;;;;10318059;28;20068;-56
2021/10/05 01:45:47;;;;;;;8.05;5.35;;;;;;;;;;10317833;28;20403;-56
2021/10/05 01:50:45;;;;;;;10.30;5.75;;;;;;;;;;10317706;28;20044;-55
2021/10/05 01:55:44;;;;;;;11.27;7.45;;;;;;;;;;10317124;28;20068;-57
2021/10/05 02:00:43;;;;;;;11.27;7.70;;;;;;;;;;10317466;28;20071;-53
2021/10/05 02:05:42;;;;;;;9.02;7.80;;;;;;;;;;10316663;28;20074;-55
2021/10/05 02:10:40;;;;;;;11.65;7.38;;;;;;;;;;10316945;28;20076;-57
2021/10/05 02:15:39;;;;;;;10.07;6.90;;;;;;;;;;10316658;28;20083;-56
2021/10/05 02:20:38;;;;;;;10.23;6.95;;;;;;;;;;10316830;28;20041;-57
2021/10/05 02:25:36;;;;;;;8.02;6.80;;;;;;;;;;10315969;28;20529;-53
2021/10/05 02:30:35;;;;;;;10.75;7.03;;;;;;;;;;10316277;28;20513;-56
2021/10/05 02:35:33;;;;;;;13.32;7.32;;;;;;;;;;10315734;28;20051;-51
2021/10/05 02:40:33;;;;;;;10.57;7.35;;;;;;;;;;10316124;28;20619;-53
2021/10/05 02:45:31;;;;;;;12.60;7.00;;;;;;;;;;10316187;28;20064;-52
2021/10/05 02:50:29;;;;;;;8.90;8.00;;;;;;;;;;10316044;28;20110;-55
2021/10/05 02:55:28;;;;;;;7.55;6.72;;;;;;;;;;10315877;28;20501;-54
2021/10/05 03:00:28;;;;;;;16.05;6.45;;;;;;;;;;10315428;28;20087;-54
2021/10/05 03:05:26;;;;;;;7.15;6.32;;;;;;;;;;10316036;28;20044;-53
2021/10/05 03:10:24;;;;;;;9.93;5.63;;;;;;;;;;10315905;28;20049;-49
2021/10/05 03:15:23;;;;;;;7.47;5.32;;;;;;;;;;10315428;28;20052;-55
2021/10/05 03:20:23;;;;;;;9.23;5.38;;;;;;;;;;10315505;28;20178;-53
2021/10/05 03:25:21;;;;;;;4.72;4.05;;;;;;;;;;10314483;28;20068;-54
2021/10/05 03:30:19;;;;;;;7.45;4.95;;;;;;;;;;10314382;28;20048;-52
2021/10/05 03:35:18;;;;;;;7.75;5.68;;;;;;;;;;10311845;28;20076;-55
2021/10/05 03:40:17;;;;;;;8.90;4.60;;;;;;;;;;10311175;28;20521;-55
2021/10/05 03:45:16;;;;;;;8.45;4.80;;;;;;;;;;10313811;28;20068;-55
2021/10/05 03:50:15;;;;;;;9.38;5.32;;;;;;;;;;10320310;28;20044;-53
2021/10/05 03:55:13;;;;;;;8.00;5.43;;;;;;;;;;10321942;28;20502;-56
2021/10/05 04:00:13;;;;;;;7.90;5.47;;;;;;;;;;10322025;28;20072;-53
2021/10/05 04:05:11;;;;;;;12.70;5.70;;;;;;;;;;10321814;28;20047;-56
2021/10/05 04:10:10;;;;;;;7.22;5.32;;;;;;;;;;10321400;28;20079;-55
2021/10/05 04:15:09;;;;;;;9.15;6.18;;;;;;;;;;10308208;28;20045;-55
2021/10/05 04:20:09;;;;;;;8.85;6.07;;;;;;;;;;10291777;28;20077;-54
2021/10/05 04:25:08;;;;;;;12.13;6.97;;;;;;;;;;10291231;28;20167;-54
2021/10/05 04:30:08;;;;;;;8.20;6.40;;;;;;;;;;10289970;28;20502;-55
2021/10/05 04:35:07;;;;;;;10.50;6.75;;;;;;;;;;10291602;28;20049;-50
2021/10/05 04:40:08;;;;;;;11.38;6.65;;;;;;;;;;10280135;28;20041;-52
2021/10/05 04:45:07;;;;;;;10.45;8.15;;;;;;;;;;10279664;28;20079;-54
2021/10/05 04:50:06;;;;;;;15.52;8.32;;;;;;;;;;10277590;28;20088;-56
2021/10/05 04:55:04;;;;;;;13.68;9.80;;;;;;;;;;10279311;28;20518;-54
2021/10/05 05:00:05;;;;;;;13.57;6.35;;;;;;;;;;10272047;28;20088;-54
2021/10/05 05:05:04;;;;;;;11.15;6.20;;;;;;;;;;10269097;28;20482;-57
2021/10/05 05:10:03;;;;;;;13.65;6.93;;;;;;;;;;10270082;28;20089;-54
2021/10/05 05:15:01;;;;;;;14.68;6.88;;;;;;;;;;10273929;28;20075;-55
2021/10/05 05:20:01;;;;;;;11.52;6.32;;;;;;;;;;10278643;28;20079;-56
2021/10/05 05:25:00;;;;;;;16.10;8.82;;;;;;;;;;10277989;28;20092;-54
2021/10/05 05:29:58;;;;;;;17.60;10.38;;;;;;;;;;10277931;28;20048;-54
2021/10/05 05:34:56;;;;;;;7.50;6.70;;;;;;;;;;10278013;28;20060;-56
2021/10/05 05:39:56;;;;;;;13.25;7.43;;;;;;;;;;10276991;28;20068;-56
2021/10/05 05:44:54;;;;;;;10.68;6.07;;;;;;;;;;10277401;28;20481;-57
2021/10/05 05:49:53;;;;;;;12.85;10.20;;;;;;;;;;10277064;28;20083;-57
2021/10/05 05:54:51;;;;;;;11.15;6.65;;;;;;;;;;10277294;28;20479;-55
2021/10/05 05:59:51;;;;;;;9.65;6.20;;;;;;;;;;10277244;28;20088;-57
2021/10/05 06:04:49;;;;;;;14.95;6.28;;;;;;;;;;10276579;28;20494;-55
2021/10/05 06:09:48;;;;;;;10.68;6.10;;;;;;;;;;10276365;28;20463;-54
2021/10/05 06:14:46;;;;;;;9.38;5.90;;;;;;;;;;10275336;28;20446;-54
2021/10/05 06:19:46;;;;;;;9.98;6.10;;;;;;;;;;10276241;28;20051;-55
2021/10/05 06:24:44;;;;;;;7.93;6.63;;;;;;;;;;10276251;28;20081;-55
2021/10/05 06:29:43;;;;;;;12.15;5.57;;;;;;;;;;10276327;28;20182;-56
2021/10/05 06:34:41;;;;;;;8.60;5.97;;;;;;;;;;10275593;28;20454;-56
2021/10/05 06:39:43;;;;;;;9.13;5.93;;;;;;;;;;10274773;28;20056;-55
2021/10/05 06:44:41;;;;;;;11.20;6.25;;;;;;;;;;10275499;28;20073;-55
2021/10/05 06:49:40;;;;;;;7.10;5.38;;;;;;;;;;10276145;28;20092;-54
2021/10/05 06:54:38;;;;;;;7.90;5.40;;;;;;;;;;10274941;28;20079;-55
2021/10/05 06:59:38;;;;;;;9.00;5.35;;;;;;;;;;10275791;28;20056;-56
2021/10/05 07:04:36;;;;;;;10.82;5.50;;;;;;;;;;10275299;28;20091;-55
2021/10/05 07:09:34;;;;;;;7.95;4.75;;;;;;;;;;10275078;28;20044;-57
2021/10/05 07:14:33;;;;;;;6.75;4.40;;;;;;;;;;10274499;28;20234;-57
2021/10/05 07:19:32;;;;;;;6.88;4.82;;;;;;;;;;10275348;28;20068;-55
2021/10/05 07:24:31;;;;;;;6.72;5.55;;;;;;;;;;10279242;28;20091;-55
2021/10/05 07:29:29;;;;;;;6.05;4.35;;;;;;;;;;10282543;28;20081;-57
2021/10/05 07:34:27;;;;;;;10.38;5.65;;;;;;;;;;10282797;28;20084;-55
2021/10/05 07:39:27;;;;;;;18.60;11.25;;;;;;;;;;10280718;28;20049;-55
2021/10/05 07:44:25;;;;;;;7.22;4.45;;;;;;;;;;10282301;28;20092;-53
2021/10/05 07:49:23;;;;;;;8.65;5.45;;;;;;;;;;10281919;28;20037;-55
2021/10/05 07:54:22;;;;;;;8.15;5.43;;;;;;;;;;10281722;28;20048;-55
2021/10/05 07:59:21;;;;;;;3.92;3.45;;;;;;;;;;10281714;28;20053;-55
2021/10/05 08:04:20;;;;;;;10.00;4.18;;;;;;;;;;10281293;28;20111;-53
2021/10/05 08:09:18;;;;;;;6.47;3.95;;;;;;;;;;10281117;28;20048;-54
2021/10/05 08:14:16;;;;;;;6.13;3.55;;;;;;;;;;10281553;28;20045;-56
2021/10/05 08:19:17;;;;;;;7.60;3.53;;;;;;;;;;10280679;28;20510;-57
2021/10/05 08:24:17;;;;;;;6.90;4.20;;;;;;;;;;10281065;28;20084;-55
2021/10/05 08:29:18;;;;;;;4.43;3.60;;;;;;;;;;10280645;28;20045;-55
2021/10/05 08:34:19;;;;;;;12.38;4.07;;;;;;;;;;10278669;28;20057;-54
2021/10/05 08:39:17;;;;;;;8.27;4.40;;;;;;;;;;10280002;28;20056;-55
2021/10/05 08:44:16;;;;;;;8.52;3.53;;;;;;;;;;10279807;28;20079;-57
2021/10/05 08:49:14;;;;;;;6.47;4.20;;;;;;;;;;10279560;28;20471;-57
2021/10/05 08:54:14;;;;;;;6.32;3.85;;;;;;;;;;10279106;28;20092;-54
2021/10/05 08:59:13;;;;;;;15.73;3.78;;;;;;;;;;10279097;28;20075;-55
2021/10/05 09:04:11;;;;;;;14.27;4.57;;;;;;;;;;10278984;28;20076;-55
2021/10/05 09:09:09;;;;;;;12.20;3.72;;;;;;;;;;10278635;28;20055;-55
2021/10/05 09:14:09;;;;;;;8.32;3.38;;;;;;;;;;10279130;28;20418;-55
2021/10/05 09:19:10;;;;;;;9.40;4.15;;;;;;;;;;10278229;28;20049;-54
2021/10/05 09:24:10;;;;;;;8.70;3.92;;;;;;;;;;10279036;28;20087;-53
2021/10/05 09:29:12;;;;;;;12.27;3.88;;;;;;;;;;10278628;28;20067;-53
2021/10/05 09:34:10;;;;;;;7.70;4.65;;;;;;;;;;10278228;28;20057;-54
2021/10/05 09:39:09;;;;;;;13.60;3.80;;;;;;;;;;10278185;28;20041;-55
2021/10/05 09:44:09;;;;;;;7.20;4.10;;;;;;;;;;10276565;28;20509;-55
2021/10/05 09:49:10;;;;;;;9.23;4.05;;;;;;;;;;10277197;28;20413;-53
2021/10/05 09:54:09;;;;;;;9.73;3.67;;;;;;;;;;10277603;28;20068;-54
2021/10/05 09:59:07;;;;;;;8.93;4.72;;;;;;;;;;10276936;28;20052;-51
2021/10/05 10:04:06;;;;;;;11.63;3.97;;;;;;;;;;10276729;28;20072;-54
2021/10/05 10:09:06;;;;;;;6.15;3.83;;;;;;;;;;10276427;28;20053;-54
2021/10/05 10:14:05;;;;;;;8.55;4.00;;;;;;;;;;10276946;28;20067;-56
2021/10/05 10:19:03;;;;;;;10.55;4.10;;;;;;;;;;10276231;28;20065;-55
2021/10/05 10:24:07;;;;;;;11.73;5.97;;;;;;;;;;10276539;28;20084;-51
2021/10/05 10:29:07;;;;;;;7.93;4.47;;;;;;;;;;10276025;28;20037;-51
2021/10/05 10:34:06;;;;;;;5.05;4.03;;;;;;;;;;10276925;28;20410;-53
2021/10/05 10:39:06;;;;;;;8.48;4.07;;;;;;;;;;10275685;28;20405;-54
2021/10/05 10:44:06;;;;;;;9.30;4.32;;;;;;;;;;10275563;28;20078;-53
2021/10/05 10:49:13;;;;;;;5.68;4.50;;;;;;;;;;10275862;28;20095;-53
2021/10/05 10:54:13;;;;;;;11.27;3.85;;;;;;;;;;10274956;28;20071;-52
2021/10/05 10:59:12;;;;;;;8.82;3.45;;;;;;;;;;10279617;28;20052;-52
2021/10/05 11:04:13;;;;;;;11.15;3.63;;;;;;;;;;10283869;28;20483;-52
2021/10/05 11:09:11;;;;;;;10.20;4.03;;;;;;;;;;10283220;28;20107;-52
2021/10/05 11:14:10;;;;;;;4.38;3.97;;;;;;;;;;10283561;28;20541;-56
2021/10/05 11:19:11;;;;;;;9.13;3.60;;;;;;;;;;10283484;28;20474;-55
2021/10/05 11:24:11;;;;;;;8.70;4.47;;;;;;;;;;10282801;28;20082;-56
2021/10/05 11:29:10;;;;;;;10.95;4.28;;;;;;;;;;10282776;28;20064;-56
2021/10/05 11:34:08;;;;;;;6.45;3.35;;;;;;;;;;10282757;28;20073;-52
2021/10/05 11:39:07;;;;;;;5.38;3.38;;;;;;;;;;10282798;28;20049;-54
2021/10/05 11:44:15;;;;;;;9.40;5.35;;;;;;;;;;10281922;28;20084;-54
2021/10/05 11:49:18;;;;;;;10.15;3.95;;;;;;;;;;10282504;28;20049;-54
2021/10/05 11:54:19;;;;;;;10.48;4.68;;;;;;;;;;10282102;28;20085;-55
2021/10/05 11:59:27;;;;;;;10.65;3.88;;;;;;;;;;10281737;28;20401;-54
2021/10/05 12:04:26;;;;;;;12.07;5.45;;;;;;;;;;10281447;28;20081;-53
2021/10/05 12:09:27;;;;;;;7.90;3.95;;;;;;;;;;10281355;28;20045;-54
2021/10/05 12:14:32;;;;;;;9.77;4.88;;;;;;;;;;10281229;28;20095;-53
2021/10/05 12:19:40;;;;;;;;;;;;;;;;;;10281972;28;20044;-53
2021/10/05 12:24:43;;;;;;;16.23;3.55;;;;;;;;;;10279882;28;19971;-55
2021/10/05 12:29:56;;;;;;;14.43;3.78;;;;;;;;;;10280571;28;20048;-53
2021/10/05 12:34:55;;;;;;;8.23;3.85;;;;;;;;;;10280706;28;20061;-55
2021/10/05 12:39:54;;;;;;;6.47;4.45;;;;;;;;;;10280192;28;20102;-52
2021/10/05 12:44:56;;;;;;;10.32;3.88;;;;;;;;;;10280153;28;20081;-53
2021/10/05 12:49:55;;;;;;;14.32;3.85;;;;;;;;;;10280051;28;20057;-52
2021/10/05 12:54:53;;;;;;;12.20;4.93;;;;;;;;;;10279688;28;20048;-55
2021/10/05 12:59:53;;;;;;;5.30;3.42;;;;;;;;;;10279170;28;20099;-55
2021/10/05 13:04:52;;;;;;;9.48;3.30;;;;;;;;;;10279189;28;20475;-55
2021/10/05 13:09:51;;;;;;;14.48;3.63;;;;;;;;;;10278987;28;20057;-52
2021/10/05 13:14:49;;;;;;;13.60;3.70;;;;;;;;;;10278957;28;20041;-50
2021/10/05 13:19:47;;;;;;;9.80;4.00;;;;;;;;;;10278275;28;20052;-52
2021/10/05 13:24:47;;;;;;;8.38;3.72;;;;;;;;;;10279112;28;20084;-51
2021/10/05 13:29:45;;;;;;;8.95;4.25;;;;;;;;;;10278656;28;20506;-52
2021/10/05 13:34:44;;;;;;;7.57;3.28;;;;;;;;;;10278404;28;20068;-54
2021/10/05 13:39:42;;;;;;;9.82;3.55;;;;;;;;;;10277819;28;20068;-54
2021/10/05 13:44:43;;;;;;;13.93;3.42;;;;;;;;;;10277492;28;20080;-53
2021/10/05 13:49:41;;;;;;;12.90;5.15;;;;;;;;;;10277936;28;20053;-55
2021/10/05 13:54:39;;;;;;;7.60;4.00;;;;;;;;;;10277361;28;20418;-52
2021/10/05 13:59:38;;;;;;;15.73;4.47;;;;;;;;;;10277182;28;20423;-53
2021/10/05 14:04:37;;;;;;;11.50;4.28;;;;;;;;;;10276903;28;20081;-54
2021/10/05 14:09:36;;;;;;;12.38;3.83;;;;;;;;;;10276724;28;20107;-54
2021/10/05 14:14:34;;;;;;;9.55;4.30;;;;;;;;;;10276351;28;20037;-55
2021/10/05 14:19:32;;;;;;;12.00;4.55;;;;;;;;;;10276689;28;20041;-55
2021/10/05 14:24:32;;;;;;;10.73;4.80;;;;;;;;;;10275956;28;20084;-54
2021/10/05 14:29:31;;;;;;;10.43;5.80;;;;;;;;;;10276665;28;20052;-54
2021/10/05 14:34:29;;;;;;;6.30;4.43;;;;;;;;;;10275141;28;20053;-54
2021/10/05 14:39:27;;;;;;;10.40;4.32;;;;;;;;;;10275340;28;20506;-55
2021/10/05 14:44:27;;;;;;;10.15;4.03;;;;;;;;;;10275562;28;20087;-53
2021/10/05 14:49:27;;;;;;;13.00;6.03;;;;;;;;;;10275586;28;20045;-52
2021/10/05 14:54:44;;;;;;;15.20;5.93;;;;;;;;;;10275174;28;20041;-55
2021/10/05 14:59:44;;;;;;;18.25;8.05;;;;;;;;;;10275773;28;20045;-55
2021/10/05 15:04:42;;;;;;;16.23;7.28;;;;;;;;;;10275115;28;20463;-55
2021/10/05 15:09:42;;;;;;;22.20;12.25;;;;;;;;;;10275227;28;20072;-54
2021/10/05 15:14:41;;;;;;;17.50;5.75;;;;;;;;;;10274873;28;20430;-54
2021/10/05 15:19:41;;;;;;;14.75;6.93;;;;;;;;;;10275411;28;20083;-52
2021/10/05 15:24:39;;;;;;;19.38;5.50;;;;;;;;;;10274783;28;20072;-55
2021/10/05 15:29:38;;;;;;;12.85;6.50;;;;;;;;;;10274544;28;20081;-54
2021/10/05 15:34:36;;;;;;;17.08;6.35;;;;;;;;;;10275598;28;20057;-54
2021/10/05 15:39:36;;;;;;;13.82;8.15;;;;;;;;;;10274304;28;20041;-54
2021/10/05 15:44:34;;;;;;;12.32;6.10;;;;;;;;;;10276825;28;20414;-55
2021/10/05 15:49:35;;;;;;;16.65;6.30;;;;;;;;;;10281832;28;20067;-55
2021/10/05 15:54:33;;;;;;;15.88;5.85;;;;;;;;;;10281375;28;20041;-54
2021/10/05 15:59:33;;;;;;;16.85;6.72;;;;;;;;;;10280471;28;20486;-54
2021/10/05 16:04:32;;;;;;;15.80;6.88;;;;;;;;;;10281417;28;20041;-55
2021/10/05 16:09:31;;;;;;;29.63;9.23;;;;;;;;;;10281440;28;20041;-54
2021/10/05 16:14:29;;;;;;;14.65;7.10;;;;;;;;;;10281123;28;20167;-54
2021/10/05 16:19:29;;;;;;;13.48;5.40;;;;;;;;;;10281451;28;20418;-56
2021/10/05 16:24:27;;;;;;;9.82;5.57;;;;;;;;;;10280922;28;20048;-57
2021/10/05 16:29:26;;;;;;;10.43;4.78;;;;;;;;;;10280329;28;20091;-57
2021/10/05 16:34:24;;;;;;;13.05;5.95;;;;;;;;;;10280608;28;20414;-54
2021/10/05 16:39:29;;;;;;;13.57;5.78;;;;;;;;;;10280505;28;20072;-54
2021/10/05 16:44:28;;;;;;;12.50;5.25;;;;;;;;;;10292748;28;20064;-55
2021/10/05 16:49:26;;;;;;;10.32;4.78;;;;;;;;;;10288465;28;20076;-54
2021/10/05 16:54:25;;;;;;;6.53;4.68;;;;;;;;;;10299427;28;20064;-53
2021/10/05 16:59:24;;;;;;;17.65;5.15;;;;;;;;;;10279264;28;20182;-55
2021/10/05 17:04:24;;;;;;;12.88;5.50;;;;;;;;;;10301906;28;20041;-57
2021/10/05 17:09:22;;;;;;;13.93;5.03;;;;;;;;;;10316521;28;20072;-56
2021/10/05 17:14:20;;;;;;;18.42;6.57;;;;;;;;;;10318551;28;20041;-54
2021/10/05 17:19:20;;;;;;;8.77;5.60;;;;;;;;;;10319290;28;20072;-56
2021/10/05 17:24:18;;;;;;;12.82;6.45;;;;;;;;;;10315375;28;20422;-54
2021/10/05 17:29:21;;;;;;;10.45;5.72;;;;;;;;;;10289463;28;20498;-54
2021/10/05 17:34:21;;;;;;;12.13;5.45;;;;;;;;;;10317558;28;20049;-55
2021/10/05 17:39:19;;;;;;;23.42;5.20;;;;;;;;;;10291321;28;20182;-55
2021/10/05 17:44:17;;;;;;;14.85;5.47;;;;;;;;;;10283878;28;20064;-54
2021/10/05 17:49:16;;;;;;;17.80;5.28;;;;;;;;;;10307424;28;20073;-55
2021/10/05 17:54:17;;;;;;;12.15;4.95;;;;;;;;;;10284131;28;20071;-55
2021/10/05 17:59:15;;;;;;;12.77;4.65;;;;;;;;;;10288757;28;20079;-55
2021/10/05 18:04:13;;;;;;;9.02;5.00;;;;;;;;;;10287050;28;20072;-54
2021/10/05 18:09:12;;;;;;;7.38;5.10;;;;;;;;;;10288808;28;20081;-55
2021/10/05 18:14:11;;;;;;;14.32;6.43;;;;;;;;;;10291231;28;20471;-56
2021/10/05 18:19:10;;;;;;;14.05;5.10;;;;;;;;;;10289688;28;20079;-56
2021/10/05 18:24:12;;;;;;;11.20;5.05;;;;;;;;;;10313722;28;20075;-51
2021/10/05 18:29:12;;;;;;;14.20;4.85;;;;;;;;;;10316240;28;20564;-55
2021/10/05 18:34:10;;;;;;;10.32;4.85;;;;;;;;;;10316237;28;20139;-54
2021/10/05 18:39:09;;;;;;;10.75;5.40;;;;;;;;;;10315869;28;20051;-56
2021/10/05 18:44:07;;;;;;;9.35;5.28;;;;;;;;;;10314097;28;20072;-54
2021/10/05 18:49:07;;;;;;;12.43;5.93;;;;;;;;;;10306435;28;20533;-54
2021/10/05 18:54:05;;;;;;;11.07;4.40;;;;;;;;;;10284028;28;20510;-54
2021/10/05 18:59:03;;;;;;;11.25;3.95;;;;;;;;;;10288475;28;20521;-53
2021/10/05 19:04:02;;;;;;;7.72;4.35;;;;;;;;;;10294801;28;20430;-51
2021/10/05 19:09:01;;;;;;;9.68;4.00;;;;;;;;;;10291981;28;20092;-51
2021/10/05 19:14:00;;;;;;;6.68;4.05;;;;;;;;;;10293205;28;20076;-53
2021/10/05 19:18:58;;;;;;;5.53;4.13;;;;;;;;;;10295572;28;20084;-50
2021/10/05 19:23:58;;;;;;;12.43;4.57;;;;;;;;;;10299416;28;20052;-54
2021/10/05 19:28:58;;;;;;;10.77;4.60;;;;;;;;;;10301059;28;20398;-53
2021/10/05 19:33:59;;;;;;;7.97;4.50;;;;;;;;;;10280106;28;20075;-49
2021/10/05 19:38:58;;;;;;;12.30;4.03;;;;;;;;;;10279510;28;20041;-48
2021/10/05 19:43:57;;;;;;;13.85;4.78;;;;;;;;;;10280114;28;20235;-50
2021/10/05 19:48:56;;;;;;;8.70;4.47;;;;;;;;;;10279997;28;20072;-55
2021/10/05 19:53:54;;;;;;;9.30;4.03;;;;;;;;;;10279826;28;20048;-50
2021/10/05 19:58:52;;;;;;;6.60;4.00;;;;;;;;;;10279373;28;20072;-54
2021/10/05 20:03:52;;;;;;;8.43;3.95;;;;;;;;;;10280107;28;20075;-53
2021/10/05 20:08:51;;;;;;;5.57;3.72;;;;;;;;;;10289814;28;20080;-52
2021/10/05 20:13:49;;;;;;;8.45;3.97;;;;;;;;;;10299918;28;20056;-52
2021/10/05 20:18:47;;;;;;;5.63;4.18;;;;;;;;;;10281242;28;20473;-54
2021/10/05 20:23:47;;;;;;;7.15;4.25;;;;;;;;;;10279009;28;20191;-55
2021/10/05 20:28:45;;;;;;;7.10;4.03;;;;;;;;;;10277971;28;20084;-55
2021/10/05 20:33:44;;;;;;;10.55;3.85;;;;;;;;;;10276955;28;20060;-52
2021/10/05 20:38:42;;;;;;;6.28;3.90;;;;;;;;;;10280077;28;20047;-54
2021/10/05 20:43:42;;;;;;;6.68;4.43;;;;;;;;;;10278749;28;20230;-53
2021/10/05 20:48:40;;;;;;;11.60;4.50;;;;;;;;;;10277666;28;20518;-56
2021/10/05 20:53:38;;;;;;;5.97;4.20;;;;;;;;;;10279327;28;20077;-54
2021/10/05 20:58:37;;;;;;;6.90;4.55;;;;;;;;;;10279125;28;20045;-54
2021/10/05 21:03:36;;;;;;;8.43;4.13;;;;;;;;;;10279876;28;20459;-54
2021/10/05 21:08:35;;;;;;;5.10;4.20;;;;;;;;;;10279470;28;20076;-54
2021/10/05 21:13:33;;;;;;;8.55;4.40;;;;;;;;;;10278868;28;20084;-55
2021/10/05 21:18:32;;;;;;;7.82;4.30;;;;;;;;;;10278440;28;20064;-51
2021/10/05 21:23:32;;;;;;;8.18;4.90;;;;;;;;;;10278370;28;20048;-54
2021/10/05 21:28:30;;;;;;;4.57;4.03;;;;;;;;;;10277694;28;20099;-53
2021/10/05 21:33:28;;;;;;;5.55;4.53;;;;;;;;;;10275166;28;20049;-55
2021/10/05 21:38:26;;;;;;;4.53;3.67;;;;;;;;;;10275051;28;20170;-55
2021/10/05 21:43:26;;;;;;;6.65;3.78;;;;;;;;;;10274257;28;20066;-52
2021/10/05 21:48:27;;;;;;;6.80;4.25;;;;;;;;;;10275287;28;20076;-53
2021/10/05 21:53:25;;;;;;;8.55;4.60;;;;;;;;;;10273889;28;20418;-55
2021/10/05 21:58:26;;;;;;;9.40;4.80;;;;;;;;;;10274544;28;20049;-54
2021/10/05 22:03:24;;;;;;;6.32;4.25;;;;;;;;;;10275022;28;20534;-51
2021/10/05 22:08:22;;;;;;;8.60;4.10;;;;;;;;;;10274725;28;20076;-55
2021/10/05 22:13:20;;;;;;;8.20;3.72;;;;;;;;;;10276936;28;20056;-54
2021/10/05 22:18:20;;;;;;;10.90;4.15;;;;;;;;;;10275892;28;20075;-54
2021/10/05 22:23:18;;;;;;;9.00;4.75;;;;;;;;;;10275505;28;20041;-51
2021/10/05 22:28:17;;;;;;;11.25;4.85;;;;;;;;;;10276341;28;20140;-54
2021/10/05 22:33:15;;;;;;;8.38;4.43;;;;;;;;;;10274436;28;20100;-53
2021/10/05 22:38:15;;;;;;;4.95;3.88;;;;;;;;;;10273018;28;20101;-54
2021/10/05 22:43:13;;;;;;;9.02;4.07;;;;;;;;;;10271832;28;20513;-52
2021/10/05 22:48:11;;;;;;;5.78;3.58;;;;;;;;;;10273137;28;20080;-53
2021/10/05 22:53:10;;;;;;;5.65;3.53;;;;;;;;;;10273057;28;20080;-52
2021/10/05 22:58:09;;;;;;;10.07;4.57;;;;;;;;;;10274230;28;20041;-54
2021/10/05 23:03:07;;;;;;;7.05;4.18;;;;;;;;;;10275599;28;20049;-54
2021/10/05 23:08:06;;;;;;;7.38;4.82;;;;;;;;;;10275395;28;20486;-53
2021/10/05 23:13:04;;;;;;;11.35;6.18;;;;;;;;;;10275424;28;20088;-54
2021/10/05 23:18:04;;;;;;;11.65;6.07;;;;;;;;;;10273699;28;20045;-54
2021/10/05 23:23:02;;;;;;;8.95;4.80;;;;;;;;;;10272299;28;20431;-55
2021/10/05 23:28:00;;;;;;;9.52;4.93;;;;;;;;;;10270825;28;20080;-54
2021/10/05 23:32:58;;;;;;;8.27;3.85;;;;;;;;;;10271610;28;20087;-54
2021/10/05 23:37:58;;;;;;;8.50;4.32;;;;;;;;;;10270784;28;20069;-54
2021/10/05 23:42:56;;;;;;;6.35;5.53;;;;;;;;;;10271422;28;20060;-55
2021/10/05 23:47:55;;;;;;;7.30;4.53;;;;;;;;;;10271606;28;20092;-53
2021/10/05 23:52:53;;;;;;;8.68;4.85;;;;;;;;;;10273430;28;20045;-53
2021/10/05 23:57:55;;;;;;;7.03;4.68;;;;;;;;;;10273953;28;20053;-55
